sensor_id;sensor_type;location;lat;lon;timestamp;temperature;humidity
32728;DHT22;55292;51.844;19.246;2024-02-15T00:01:05;6.40;99.90
32728;DHT22;55292;51.844;19.246;2024-02-15T00:06:15;6.40;99.90
32728;DHT22;55292;51.844;19.246;2024-02-15T00:11:18;6.40;99.90
32728;DHT22;55292;51.844;19.246;2024-02-15T00:16:21;8.60;99.90
32728;DHT22;55292;51.844;19.246;2024-02-15T00:21:24;6.30;99.90
32728;DHT22;55292;51.844;19.246;2024-02-15T00:26:27;6.20;99.90
32728;DHT22;55292;51.844;19.246;2024-02-15T00:31:29;6.20;99.90
32728;DHT22;55292;51.844;19.246;2024-02-15T00:36:32;6.20;99.90
32728;DHT22;55292;51.844;19.246;2024-02-15T00:41:35;6.20;99.90
32728;DHT22;55292;51.844;19.246;2024-02-15T00:46:38;6.20;99.90
32728;DHT22;55292;51.844;19.246;2024-02-15T00:51:41;6.10;99.90
32728;DHT22;55292;51.844;19.246;2024-02-15T00:56:43;6.10;99.90
32728;DHT22;55292;51.844;19.246;2024-02-15T01:01:46;6.10;99.90
32728;DHT22;55292;51.844;19.246;2024-02-15T01:06:50;6.10;99.90
32728;DHT22;55292;51.844;19.246;2024-02-15T01:11:53;6.10;99.90
32728;DHT22;55292;51.844;19.246;2024-02-15T01:16:57;6.10;99.90
32728;DHT22;55292;51.844;19.246;2024-02-15T01:22:00;5.90;99.90
32728;DHT22;55292;51.844;19.246;2024-02-15T01:27:03;5.90;99.90
32728;DHT22;55292;51.844;19.246;2024-02-15T01:32:06;5.70;99.90
32728;DHT22;55292;51.844;19.246;2024-02-15T01:37:09;5.70;99.90
32728;DHT22;55292;51.844;19.246;2024-02-15T01:42:12;5.70;99.90
32728;DHT22;55292;51.844;19.246;2024-02-15T01:47:18;5.70;99.90
32728;DHT22;55292;51.844;19.246;2024-02-15T01:52:26;5.80;99.90
32728;DHT22;55292;51.844;19.246;2024-02-15T01:57:29;5.80;99.90
32728;DHT22;55292;51.844;19.246;2024-02-15T02:02:34;5.80;99.90
32728;DHT22;55292;51.844;19.246;2024-02-15T02:07:38;5.80;99.90
32728;DHT22;55292;51.844;19.246;2024-02-15T02:12:40;5.80;99.90
32728;DHT22;55292;51.844;19.246;2024-02-15T02:17:50;5.80;99.90
32728;DHT22;55292;51.844;19.246;2024-02-15T02:23:07;5.80;99.90
32728;DHT22;55292;51.844;19.246;2024-02-15T02:28:13;5.90;99.90
32728;DHT22;55292;51.844;19.246;2024-02-15T02:33:16;5.90;99.90
32728;DHT22;55292;51.844;19.246;2024-02-15T02:38:24;6.00;99.90
32728;DHT22;55292;51.844;19.246;2024-02-15T02:43:28;6.00;99.90
32728;DHT22;55292;51.844;19.246;2024-02-15T02:48:31;6.10;99.90
32728;DHT22;55292;51.844;19.246;2024-02-15T02:53:34;6.10;99.90
32728;DHT22;55292;51.844;19.246;2024-02-15T02:58:38;6.20;99.90
32728;DHT22;55292;51.844;19.246;2024-02-15T03:03:44;6.20;99.90
32728;DHT22;55292;51.844;19.246;2024-02-15T03:08:47;6.10;99.90
32728;DHT22;55292;51.844;19.246;2024-02-15T03:13:50;6.10;99.90
32728;DHT22;55292;51.844;19.246;2024-02-15T03:18:53;6.20;99.90
32728;DHT22;55292;51.844;19.246;2024-02-15T03:23:55;6.20;99.90
32728;DHT22;55292;51.844;19.246;2024-02-15T03:28:58;6.20;99.90
32728;DHT22;55292;51.844;19.246;2024-02-15T03:34:01;6.20;99.90
32728;DHT22;55292;51.844;19.246;2024-02-15T03:39:03;6.20;99.90
32728;DHT22;55292;51.844;19.246;2024-02-15T03:44:08;6.30;99.90
32728;DHT22;55292;51.844;19.246;2024-02-15T03:49:12;6.50;99.90
32728;DHT22;55292;51.844;19.246;2024-02-15T03:54:14;6.40;99.90
32728;DHT22;55292;51.844;19.246;2024-02-15T03:59:21;6.40;99.90
32728;DHT22;55292;51.844;19.246;2024-02-15T04:04:27;6.50;99.90
32728;DHT22;55292;51.844;19.246;2024-02-15T04:09:33;6.60;99.90
32728;DHT22;55292;51.844;19.246;2024-02-15T04:14:38;6.60;99.90
32728;DHT22;55292;51.844;19.246;2024-02-15T04:19:41;6.60;99.90
32728;DHT22;55292;51.844;19.246;2024-02-15T04:24:43;6.70;99.90
32728;DHT22;55292;51.844;19.246;2024-02-15T04:29:48;6.60;99.90
32728;DHT22;55292;51.844;19.246;2024-02-15T04:34:52;6.70;99.90
32728;DHT22;55292;51.844;19.246;2024-02-15T04:39:55;6.70;99.90
32728;DHT22;55292;51.844;19.246;2024-02-15T04:44:59;6.60;99.90
32728;DHT22;55292;51.844;19.246;2024-02-15T04:50:02;6.60;99.90
32728;DHT22;55292;51.844;19.246;2024-02-15T04:55:05;6.70;99.90
32728;DHT22;55292;51.844;19.246;2024-02-15T05:00:08;6.70;99.90
32728;DHT22;55292;51.844;19.246;2024-02-15T05:05:14;6.70;99.90
32728;DHT22;55292;51.844;19.246;2024-02-15T05:10:16;6.70;99.90
32728;DHT22;55292;51.844;19.246;2024-02-15T05:15:19;6.70;99.90
32728;DHT22;55292;51.844;19.246;2024-02-15T05:20:25;6.60;99.90
32728;DHT22;55292;51.844;19.246;2024-02-15T05:25:29;6.40;99.90
32728;DHT22;55292;51.844;19.246;2024-02-15T05:30:35;6.40;99.90
32728;DHT22;55292;51.844;19.246;2024-02-15T05:35:40;6.50;99.90
32728;DHT22;55292;51.844;19.246;2024-02-15T05:40:44;6.70;99.90
32728;DHT22;55292;51.844;19.246;2024-02-15T05:45:47;6.70;99.90
32728;DHT22;55292;51.844;19.246;2024-02-15T05:50:51;6.70;99.90
32728;DHT22;55292;51.844;19.246;2024-02-15T05:55:56;6.70;99.90
32728;DHT22;55292;51.844;19.246;2024-02-15T06:01:03;6.50;99.90
32728;DHT22;55292;51.844;19.246;2024-02-15T06:06:09;6.50;99.90
32728;DHT22;55292;51.844;19.246;2024-02-15T06:11:11;6.50;99.90
32728;DHT22;55292;51.844;19.246;2024-02-15T06:16:15;6.60;99.90
32728;DHT22;55292;51.844;19.246;2024-02-15T06:21:17;6.70;99.90
32728;DHT22;55292;51.844;19.246;2024-02-15T06:26:20;6.80;99.90
32728;DHT22;55292;51.844;19.246;2024-02-15T06:31:23;6.90;99.90
32728;DHT22;55292;51.844;19.246;2024-02-15T06:36:49;6.90;99.90
32728;DHT22;55292;51.844;19.246;2024-02-15T06:42:19;7.10;99.90
32728;DHT22;55292;51.844;19.246;2024-02-15T06:47:23;7.10;99.90
32728;DHT22;55292;51.844;19.246;2024-02-15T06:52:25;7.20;99.90
32728;DHT22;55292;51.844;19.246;2024-02-15T06:57:28;7.30;99.90
32728;DHT22;55292;51.844;19.246;2024-02-15T07:02:31;7.30;99.90
32728;DHT22;55292;51.844;19.246;2024-02-15T07:07:35;7.30;99.90
32728;DHT22;55292;51.844;19.246;2024-02-15T07:12:38;7.30;99.90
32728;DHT22;55292;51.844;19.246;2024-02-15T07:17:40;7.50;99.90
32728;DHT22;55292;51.844;19.246;2024-02-15T07:22:43;7.90;99.90
32728;DHT22;55292;51.844;19.246;2024-02-15T07:27:48;8.00;99.90
32728;DHT22;55292;51.844;19.246;2024-02-15T07:32:50;8.10;99.90
32728;DHT22;55292;51.844;19.246;2024-02-15T07:37:54;8.20;99.90
32728;DHT22;55292;51.844;19.246;2024-02-15T07:43:03;8.30;99.90
32728;DHT22;55292;51.844;19.246;2024-02-15T07:48:06;8.50;99.90
32728;DHT22;55292;51.844;19.246;2024-02-15T07:53:09;8.40;99.90
32728;DHT22;55292;51.844;19.246;2024-02-15T07:58:14;8.50;99.90
32728;DHT22;55292;51.844;19.246;2024-02-15T08:03:16;8.50;99.90
32728;DHT22;55292;51.844;19.246;2024-02-15T08:08:19;8.50;99.90
32728;DHT22;55292;51.844;19.246;2024-02-15T08:13:23;8.50;99.90
32728;DHT22;55292;51.844;19.246;2024-02-15T08:18:30;8.50;99.90
32728;DHT22;55292;51.844;19.246;2024-02-15T08:23:33;8.60;99.90
32728;DHT22;55292;51.844;19.246;2024-02-15T08:28:36;8.60;99.90
32728;DHT22;55292;51.844;19.246;2024-02-15T08:33:39;8.70;99.90
32728;DHT22;55292;51.844;19.246;2024-02-15T08:38:42;8.90;99.90
32728;DHT22;55292;51.844;19.246;2024-02-15T08:43:46;9.10;99.90
32728;DHT22;55292;51.844;19.246;2024-02-15T08:48:55;9.20;99.90
32728;DHT22;55292;51.844;19.246;2024-02-15T08:54:04;9.20;99.90
32728;DHT22;55292;51.844;19.246;2024-02-15T08:59:07;9.30;99.90
32728;DHT22;55292;51.844;19.246;2024-02-15T09:04:10;9.30;99.90
32728;DHT22;55292;51.844;19.246;2024-02-15T09:09:13;9.70;99.90
32728;DHT22;55292;51.844;19.246;2024-02-15T09:14:16;9.70;99.90
32728;DHT22;55292;51.844;19.246;2024-02-15T09:19:18;10.00;99.90
32728;DHT22;55292;51.844;19.246;2024-02-15T09:24:21;10.20;99.90
32728;DHT22;55292;51.844;19.246;2024-02-15T09:29:30;10.20;99.90
32728;DHT22;55292;51.844;19.246;2024-02-15T09:34:35;10.40;99.90
32728;DHT22;55292;51.844;19.246;2024-02-15T09:39:38;10.30;99.90
32728;DHT22;55292;51.844;19.246;2024-02-15T09:44:41;10.10;99.90
32728;DHT22;55292;51.844;19.246;2024-02-15T09:49:49;10.30;99.90
32728;DHT22;55292;51.844;19.246;2024-02-15T09:54:53;10.50;99.90
32728;DHT22;55292;51.844;19.246;2024-02-15T09:59:57;10.70;99.90
32728;DHT22;55292;51.844;19.246;2024-02-15T10:05:00;13.10;99.90
32728;DHT22;55292;51.844;19.246;2024-02-15T10:15:34;11.20;99.90
32728;DHT22;55292;51.844;19.246;2024-02-15T10:20:41;11.40;99.90
32728;DHT22;55292;51.844;19.246;2024-02-15T10:25:48;11.80;99.90
32728;DHT22;55292;51.844;19.246;2024-02-15T10:30:51;11.50;99.90
32728;DHT22;55292;51.844;19.246;2024-02-15T10:36:09;11.60;99.90
32728;DHT22;55292;51.844;19.246;2024-02-15T10:41:12;12.90;99.90
32728;DHT22;55292;51.844;19.246;2024-02-15T10:46:15;12.10;99.90
32728;DHT22;55292;51.844;19.246;2024-02-15T10:51:20;11.90;99.90
32728;DHT22;55292;51.844;19.246;2024-02-15T10:56:27;11.90;99.90
32728;DHT22;55292;51.844;19.246;2024-02-15T11:01:36;12.30;99.90
32728;DHT22;55292;51.844;19.246;2024-02-15T11:06:45;12.60;99.90
32728;DHT22;55292;51.844;19.246;2024-02-15T11:11:49;12.60;99.90
32728;DHT22;55292;51.844;19.246;2024-02-15T11:16:59;13.00;99.90
32728;DHT22;55292;51.844;19.246;2024-02-15T11:22:09;13.10;99.90
32728;DHT22;55292;51.844;19.246;2024-02-15T11:27:27;13.20;99.90
32728;DHT22;55292;51.844;19.246;2024-02-15T11:42:58;12.80;99.90
32728;DHT22;55292;51.844;19.246;2024-02-15T11:48:03;12.70;99.90
32728;DHT22;55292;51.844;19.246;2024-02-15T11:53:08;12.80;99.90
32728;DHT22;55292;51.844;19.246;2024-02-15T11:58:17;12.70;99.90
32728;DHT22;55292;51.844;19.246;2024-02-15T12:03:25;12.70;99.90
32728;DHT22;55292;51.844;19.246;2024-02-15T12:09:05;13.10;99.90
32728;DHT22;55292;51.844;19.246;2024-02-15T12:14:26;13.10;99.90
32728;DHT22;55292;51.844;19.246;2024-02-15T12:19:48;13.90;99.90
32728;DHT22;55292;51.844;19.246;2024-02-15T12:25:01;13.10;99.90
32728;DHT22;55292;51.844;19.246;2024-02-15T12:30:13;13.10;99.90
32728;DHT22;55292;51.844;19.246;2024-02-15T12:35:20;13.10;99.90
32728;DHT22;55292;51.844;19.246;2024-02-15T12:40:24;13.20;99.90
32728;DHT22;55292;51.844;19.246;2024-02-15T12:45:36;13.10;99.90
32728;DHT22;55292;51.844;19.246;2024-02-15T12:50:39;12.70;99.90
32728;DHT22;55292;51.844;19.246;2024-02-15T12:55:42;12.60;99.90
32728;DHT22;55292;51.844;19.246;2024-02-15T13:00:45;12.80;99.90
32728;DHT22;55292;51.844;19.246;2024-02-15T13:05:47;14.60;99.90
32728;DHT22;55292;51.844;19.246;2024-02-15T13:10:51;12.70;99.90
32728;DHT22;55292;51.844;19.246;2024-02-15T13:15:54;13.70;99.90
32728;DHT22;55292;51.844;19.246;2024-02-15T13:20:57;12.60;99.90
32728;DHT22;55292;51.844;19.246;2024-02-15T13:26:03;12.70;99.90
32728;DHT22;55292;51.844;19.246;2024-02-15T13:31:07;12.70;99.90
32728;DHT22;55292;51.844;19.246;2024-02-15T13:36:10;12.70;99.90
32728;DHT22;55292;51.844;19.246;2024-02-15T13:41:13;12.60;99.90
32728;DHT22;55292;51.844;19.246;2024-02-15T13:46:16;12.60;99.90
32728;DHT22;55292;51.844;19.246;2024-02-15T13:51:22;12.60;99.90
32728;DHT22;55292;51.844;19.246;2024-02-15T13:56:25;14.40;99.90
32728;DHT22;55292;51.844;19.246;2024-02-15T14:01:27;12.50;99.90
32728;DHT22;55292;51.844;19.246;2024-02-15T14:06:31;12.50;99.90
32728;DHT22;55292;51.844;19.246;2024-02-15T14:11:33;12.50;99.90
32728;DHT22;55292;51.844;19.246;2024-02-15T14:16:36;12.60;99.90
32728;DHT22;55292;51.844;19.246;2024-02-15T14:21:39;12.60;99.90
32728;DHT22;55292;51.844;19.246;2024-02-15T14:26:45;12.60;99.90
32728;DHT22;55292;51.844;19.246;2024-02-15T14:31:53;12.40;99.90
32728;DHT22;55292;51.844;19.246;2024-02-15T14:37:14;12.20;99.90
32728;DHT22;55292;51.844;19.246;2024-02-15T14:42:19;13.80;99.90
32728;DHT22;55292;51.844;19.246;2024-02-15T14:47:24;12.20;99.90
32728;DHT22;55292;51.844;19.246;2024-02-15T14:52:27;12.10;99.90
32728;DHT22;55292;51.844;19.246;2024-02-15T14:57:29;12.00;99.90
32728;DHT22;55292;51.844;19.246;2024-02-15T15:02:32;11.80;99.90
32728;DHT22;55292;51.844;19.246;2024-02-15T15:07:35;11.70;99.90
32728;DHT22;55292;51.844;19.246;2024-02-15T15:12:56;11.60;99.90
32728;DHT22;55292;51.844;19.246;2024-02-15T15:17:59;11.40;99.90
32728;DHT22;55292;51.844;19.246;2024-02-15T15:23:02;11.40;99.90
32728;DHT22;55292;51.844;19.246;2024-02-15T15:28:06;11.30;99.90
32728;DHT22;55292;51.844;19.246;2024-02-15T15:33:09;11.30;99.90
32728;DHT22;55292;51.844;19.246;2024-02-15T15:38:13;11.20;99.90
32728;DHT22;55292;51.844;19.246;2024-02-15T15:43:16;11.20;99.90
32728;DHT22;55292;51.844;19.246;2024-02-15T15:48:19;11.10;99.90
32728;DHT22;55292;51.844;19.246;2024-02-15T15:53:22;13.30;99.90
32728;DHT22;55292;51.844;19.246;2024-02-15T15:58:25;10.80;99.90
32728;DHT22;55292;51.844;19.246;2024-02-15T16:03:28;10.80;99.90
32728;DHT22;55292;51.844;19.246;2024-02-15T16:08:31;10.70;99.90
32728;DHT22;55292;51.844;19.246;2024-02-15T16:13:34;10.60;99.90
32728;DHT22;55292;51.844;19.246;2024-02-15T16:18:37;10.50;99.90
32728;DHT22;55292;51.844;19.246;2024-02-15T16:23:40;10.50;99.90
32728;DHT22;55292;51.844;19.246;2024-02-15T16:28:43;10.50;99.90
32728;DHT22;55292;51.844;19.246;2024-02-15T16:33:49;10.40;99.90
32728;DHT22;55292;51.844;19.246;2024-02-15T16:38:52;10.50;99.90
32728;DHT22;55292;51.844;19.246;2024-02-15T16:43:56;10.50;99.90
32728;DHT22;55292;51.844;19.246;2024-02-15T16:49:00;10.50;99.90
32728;DHT22;55292;51.844;19.246;2024-02-15T16:54:03;10.40;99.90
32728;DHT22;55292;51.844;19.246;2024-02-15T16:59:11;10.50;99.90
32728;DHT22;55292;51.844;19.246;2024-02-15T17:04:14;10.50;99.90
32728;DHT22;55292;51.844;19.246;2024-02-15T17:09:20;10.50;99.90
32728;DHT22;55292;51.844;19.246;2024-02-15T17:14:23;10.60;99.90
32728;DHT22;55292;51.844;19.246;2024-02-15T17:19:26;10.50;99.90
32728;DHT22;55292;51.844;19.246;2024-02-15T17:24:32;10.50;99.90
32728;DHT22;55292;51.844;19.246;2024-02-15T17:29:36;10.60;99.90
32728;DHT22;55292;51.844;19.246;2024-02-15T17:34:39;10.50;99.90
32728;DHT22;55292;51.844;19.246;2024-02-15T17:39:42;10.50;99.90
32728;DHT22;55292;51.844;19.246;2024-02-15T17:44:45;10.40;99.90
32728;DHT22;55292;51.844;19.246;2024-02-15T17:49:48;13.30;99.90
32728;DHT22;55292;51.844;19.246;2024-02-15T17:54:51;10.40;99.90
32728;DHT22;55292;51.844;19.246;2024-02-15T17:59:54;10.40;99.90
32728;DHT22;55292;51.844;19.246;2024-02-15T18:04:57;10.30;99.90
32728;DHT22;55292;51.844;19.246;2024-02-15T18:10:00;10.40;99.90
32728;DHT22;55292;51.844;19.246;2024-02-15T18:15:07;10.40;99.90
32728;DHT22;55292;51.844;19.246;2024-02-15T18:20:16;10.40;99.90
32728;DHT22;55292;51.844;19.246;2024-02-15T18:25:19;10.40;99.90
32728;DHT22;55292;51.844;19.246;2024-02-15T18:30:25;10.40;99.90
32728;DHT22;55292;51.844;19.246;2024-02-15T18:35:34;10.40;99.90
32728;DHT22;55292;51.844;19.246;2024-02-15T18:40:37;10.40;99.90
32728;DHT22;55292;51.844;19.246;2024-02-15T18:45:40;13.30;99.90
32728;DHT22;55292;51.844;19.246;2024-02-15T18:50:44;10.40;99.90
32728;DHT22;55292;51.844;19.246;2024-02-15T18:55:47;10.30;99.90
32728;DHT22;55292;51.844;19.246;2024-02-15T19:00:51;10.30;99.90
32728;DHT22;55292;51.844;19.246;2024-02-15T19:06:02;10.20;99.90
32728;DHT22;55292;51.844;19.246;2024-02-15T19:11:05;10.00;99.90
32728;DHT22;55292;51.844;19.246;2024-02-15T19:16:08;10.10;99.90
32728;DHT22;55292;51.844;19.246;2024-02-15T19:21:13;10.10;99.90
32728;DHT22;55292;51.844;19.246;2024-02-15T19:26:16;10.10;99.90
32728;DHT22;55292;51.844;19.246;2024-02-15T19:31:18;10.10;99.90
32728;DHT22;55292;51.844;19.246;2024-02-15T19:36:22;10.10;99.90
32728;DHT22;55292;51.844;19.246;2024-02-15T19:41:27;10.10;99.90
32728;DHT22;55292;51.844;19.246;2024-02-15T19:46:33;10.10;99.90
32728;DHT22;55292;51.844;19.246;2024-02-15T19:51:42;10.10;99.90
32728;DHT22;55292;51.844;19.246;2024-02-15T19:56:44;9.90;99.90
32728;DHT22;55292;51.844;19.246;2024-02-15T20:01:50;9.80;99.90
32728;DHT22;55292;51.844;19.246;2024-02-15T20:06:53;9.70;99.90
32728;DHT22;55292;51.844;19.246;2024-02-15T20:11:58;9.80;99.90
32728;DHT22;55292;51.844;19.246;2024-02-15T20:17:03;9.80;99.90
32728;DHT22;55292;51.844;19.246;2024-02-15T20:22:07;9.90;99.90
32728;DHT22;55292;51.844;19.246;2024-02-15T20:27:10;9.90;99.90
32728;DHT22;55292;51.844;19.246;2024-02-15T20:32:13;9.80;99.90
32728;DHT22;55292;51.844;19.246;2024-02-15T20:37:15;9.70;99.90
32728;DHT22;55292;51.844;19.246;2024-02-15T20:42:18;9.60;99.90
32728;DHT22;55292;51.844;19.246;2024-02-15T20:47:21;9.40;99.90
32728;DHT22;55292;51.844;19.246;2024-02-15T20:52:27;10.70;99.90
32728;DHT22;55292;51.844;19.246;2024-02-15T20:57:33;9.20;99.90
32728;DHT22;55292;51.844;19.246;2024-02-15T21:02:36;9.00;99.90
32728;DHT22;55292;51.844;19.246;2024-02-15T21:07:43;8.90;99.90
32728;DHT22;55292;51.844;19.246;2024-02-15T21:12:46;8.70;99.90
32728;DHT22;55292;51.844;19.246;2024-02-15T21:17:49;8.60;99.90
32728;DHT22;55292;51.844;19.246;2024-02-15T21:22:52;8.50;99.90
32728;DHT22;55292;51.844;19.246;2024-02-15T21:27:59;8.50;99.90
32728;DHT22;55292;51.844;19.246;2024-02-15T21:33:02;8.40;99.90
32728;DHT22;55292;51.844;19.246;2024-02-15T21:38:05;8.30;99.90
32728;DHT22;55292;51.844;19.246;2024-02-15T21:43:09;8.20;99.90
32728;DHT22;55292;51.844;19.246;2024-02-15T21:48:12;8.20;99.90
32728;DHT22;55292;51.844;19.246;2024-02-15T21:53:15;8.30;99.90
32728;DHT22;55292;51.844;19.246;2024-02-15T21:58:18;8.50;99.90
32728;DHT22;55292;51.844;19.246;2024-02-15T22:03:25;8.10;99.90
32728;DHT22;55292;51.844;19.246;2024-02-15T22:08:34;8.10;99.90
32728;DHT22;55292;51.844;19.246;2024-02-15T22:13:37;8.10;99.90
32728;DHT22;55292;51.844;19.246;2024-02-15T22:18:40;8.00;99.90
32728;DHT22;55292;51.844;19.246;2024-02-15T22:23:43;7.90;99.90
32728;DHT22;55292;51.844;19.246;2024-02-15T22:28:46;7.70;99.90
32728;DHT22;55292;51.844;19.246;2024-02-15T22:33:49;7.70;99.90
32728;DHT22;55292;51.844;19.246;2024-02-15T22:38:53;7.70;99.90
32728;DHT22;55292;51.844;19.246;2024-02-15T22:43:56;7.90;99.90
32728;DHT22;55292;51.844;19.246;2024-02-15T22:48:59;7.90;99.90
32728;DHT22;55292;51.844;19.246;2024-02-15T22:54:02;8.10;99.90
32728;DHT22;55292;51.844;19.246;2024-02-15T22:59:05;8.00;99.90
32728;DHT22;55292;51.844;19.246;2024-02-15T23:04:08;7.90;99.90
32728;DHT22;55292;51.844;19.246;2024-02-15T23:09:12;7.70;99.90
32728;DHT22;55292;51.844;19.246;2024-02-15T23:14:18;7.50;99.90
32728;DHT22;55292;51.844;19.246;2024-02-15T23:19:23;7.50;99.90
32728;DHT22;55292;51.844;19.246;2024-02-15T23:24:26;7.50;99.90
32728;DHT22;55292;51.844;19.246;2024-02-15T23:29:29;7.60;99.90
32728;DHT22;55292;51.844;19.246;2024-02-15T23:34:32;7.50;99.90
32728;DHT22;55292;51.844;19.246;2024-02-15T23:39:34;7.40;99.90
32728;DHT22;55292;51.844;19.246;2024-02-15T23:45:04;7.40;99.90
32728;DHT22;55292;51.844;19.246;2024-02-15T23:50:07;7.40;99.90
32728;DHT22;55292;51.844;19.246;2024-02-15T23:55:18;7.50;99.90
